sensor_id;sensor_type;location;lat;lon;timestamp;P1;durP1;ratioP1;P2;durP2;ratioP2
76393;SDS011;65216;51.090;-115.352;2023-08-17T00:02:20;24.00;;;8.10;;
76393;SDS011;65216;51.090;-115.352;2023-08-17T00:04:47;16.60;;;8.20;;
76393;SDS011;65216;51.090;-115.352;2023-08-17T00:07:14;22.90;;;8.80;;
76393;SDS011;65216;51.090;-115.352;2023-08-17T00:09:41;21.00;;;8.90;;
76393;SDS011;65216;51.090;-115.352;2023-08-17T00:12:11;18.50;;;8.40;;
76393;SDS011;65216;51.090;-115.352;2023-08-17T00:14:38;21.80;;;8.90;;
76393;SDS011;65216;51.090;-115.352;2023-08-17T00:17:06;19.60;;;8.50;;
76393;SDS011;65216;51.090;-115.352;2023-08-17T00:19:33;21.60;;;8.30;;
76393;SDS011;65216;51.090;-115.352;2023-08-17T00:22:02;21.90;;;8.80;;
76393;SDS011;65216;51.090;-115.352;2023-08-17T00:24:31;20.00;;;8.20;;
76393;SDS011;65216;51.090;-115.352;2023-08-17T00:26:58;18.40;;;8.70;;
76393;SDS011;65216;51.090;-115.352;2023-08-17T00:29:27;21.20;;;8.90;;
76393;SDS011;65216;51.090;-115.352;2023-08-17T00:31:54;18.70;;;9.50;;
76393;SDS011;65216;51.090;-115.352;2023-08-17T00:34:24;18.60;;;9.30;;
76393;SDS011;65216;51.090;-115.352;2023-08-17T00:36:51;18.90;;;9.20;;
76393;SDS011;65216;51.090;-115.352;2023-08-17T00:39:18;18.80;;;9.70;;
76393;SDS011;65216;51.090;-115.352;2023-08-17T00:41:46;20.40;;;9.90;;
76393;SDS011;65216;51.090;-115.352;2023-08-17T00:44:16;19.10;;;9.80;;
76393;SDS011;65216;51.090;-115.352;2023-08-17T00:46:43;19.00;;;10.00;;
76393;SDS011;65216;51.090;-115.352;2023-08-17T00:49:10;20.70;;;10.10;;
76393;SDS011;65216;51.090;-115.352;2023-08-17T00:51:40;19.00;;;10.60;;
76393;SDS011;65216;51.090;-115.352;2023-08-17T00:54:07;18.90;;;10.60;;
76393;SDS011;65216;51.090;-115.352;2023-08-17T00:56:36;18.30;;;10.50;;
76393;SDS011;65216;51.090;-115.352;2023-08-17T00:59:06;19.70;;;10.80;;
76393;SDS011;65216;51.090;-115.352;2023-08-17T01:01:33;16.70;;;10.00;;
76393;SDS011;65216;51.090;-115.352;2023-08-17T01:04:00;19.00;;;10.10;;
76393;SDS011;65216;51.090;-115.352;2023-08-17T01:06:27;20.70;;;10.80;;
76393;SDS011;65216;51.090;-115.352;2023-08-17T01:08:57;18.60;;;11.10;;
76393;SDS011;65216;51.090;-115.352;2023-08-17T01:11:37;21.30;;;10.80;;
76393;SDS011;65216;51.090;-115.352;2023-08-17T01:14:31;22.10;;;11.10;;
76393;SDS011;65216;51.090;-115.352;2023-08-17T01:17:22;21.10;;;11.30;;
76393;SDS011;65216;51.090;-115.352;2023-08-17T01:19:56;21.50;;;11.70;;
76393;SDS011;65216;51.090;-115.352;2023-08-17T01:22:26;20.70;;;11.50;;
76393;SDS011;65216;51.090;-115.352;2023-08-17T01:24:56;20.40;;;11.50;;
76393;SDS011;65216;51.090;-115.352;2023-08-17T01:27:24;20.50;;;11.60;;
76393;SDS011;65216;51.090;-115.352;2023-08-17T01:29:52;24.20;;;11.50;;
76393;SDS011;65216;51.090;-115.352;2023-08-17T01:32:26;20.80;;;11.80;;
76393;SDS011;65216;51.090;-115.352;2023-08-17T01:35:05;20.10;;;11.30;;
76393;SDS011;65216;51.090;-115.352;2023-08-17T01:37:43;20.50;;;11.60;;
76393;SDS011;65216;51.090;-115.352;2023-08-17T01:40:12;21.50;;;11.90;;
76393;SDS011;65216;51.090;-115.352;2023-08-17T01:42:41;20.10;;;11.50;;
76393;SDS011;65216;51.090;-115.352;2023-08-17T01:45:10;21.00;;;11.50;;
76393;SDS011;65216;51.090;-115.352;2023-08-17T01:47:37;21.60;;;10.70;;
76393;SDS011;65216;51.090;-115.352;2023-08-17T01:50:04;29.20;;;11.10;;
76393;SDS011;65216;51.090;-115.352;2023-08-17T01:52:32;19.70;;;10.50;;
76393;SDS011;65216;51.090;-115.352;2023-08-17T01:54:59;18.50;;;11.20;;
76393;SDS011;65216;51.090;-115.352;2023-08-17T01:57:30;23.60;;;11.80;;
76393;SDS011;65216;51.090;-115.352;2023-08-17T01:59:57;19.70;;;11.20;;
76393;SDS011;65216;51.090;-115.352;2023-08-17T02:02:24;22.30;;;11.80;;
76393;SDS011;65216;51.090;-115.352;2023-08-17T02:04:54;22.90;;;11.20;;
76393;SDS011;65216;51.090;-115.352;2023-08-17T02:07:21;18.60;;;10.60;;
76393;SDS011;65216;51.090;-115.352;2023-08-17T02:09:48;20.80;;;9.90;;
76393;SDS011;65216;51.090;-115.352;2023-08-17T02:12:15;24.70;;;9.50;;
76393;SDS011;65216;51.090;-115.352;2023-08-17T02:14:42;24.30;;;9.60;;
76393;SDS011;65216;51.090;-115.352;2023-08-17T02:17:09;17.90;;;9.30;;
76393;SDS011;65216;51.090;-115.352;2023-08-17T02:19:38;23.20;;;9.00;;
76393;SDS011;65216;51.090;-115.352;2023-08-17T02:22:05;17.70;;;9.00;;
76393;SDS011;65216;51.090;-115.352;2023-08-17T02:24:35;18.00;;;9.50;;
76393;SDS011;65216;51.090;-115.352;2023-08-17T02:27:03;22.90;;;7.90;;
76393;SDS011;65216;51.090;-115.352;2023-08-17T02:29:30;19.50;;;8.00;;
76393;SDS011;65216;51.090;-115.352;2023-08-17T02:31:57;17.40;;;7.30;;
76393;SDS011;65216;51.090;-115.352;2023-08-17T02:34:24;16.60;;;7.30;;
76393;SDS011;65216;51.090;-115.352;2023-08-17T02:36:51;17.90;;;7.40;;
76393;SDS011;65216;51.090;-115.352;2023-08-17T02:39:18;14.90;;;7.20;;
76393;SDS011;65216;51.090;-115.352;2023-08-17T02:41:44;17.30;;;7.10;;
76393;SDS011;65216;51.090;-115.352;2023-08-17T02:44:14;17.20;;;7.60;;
76393;SDS011;65216;51.090;-115.352;2023-08-17T02:46:41;15.00;;;7.30;;
76393;SDS011;65216;51.090;-115.352;2023-08-17T02:49:10;18.40;;;6.90;;
76393;SDS011;65216;51.090;-115.352;2023-08-17T02:51:38;15.70;;;7.10;;
76393;SDS011;65216;51.090;-115.352;2023-08-17T02:54:05;15.10;;;6.20;;
76393;SDS011;65216;51.090;-115.352;2023-08-17T02:56:32;14.10;;;6.00;;
76393;SDS011;65216;51.090;-115.352;2023-08-17T02:58:58;14.50;;;5.00;;
76393;SDS011;65216;51.090;-115.352;2023-08-17T03:01:25;12.50;;;5.70;;
76393;SDS011;65216;51.090;-115.352;2023-08-17T03:03:52;15.50;;;6.10;;
76393;SDS011;65216;51.090;-115.352;2023-08-17T03:06:19;13.60;;;5.70;;
76393;SDS011;65216;51.090;-115.352;2023-08-17T03:08:46;14.70;;;5.60;;
76393;SDS011;65216;51.090;-115.352;2023-08-17T03:11:13;15.00;;;5.60;;
76393;SDS011;65216;51.090;-115.352;2023-08-17T03:13:40;12.50;;;5.20;;
76393;SDS011;65216;51.090;-115.352;2023-08-17T03:16:06;14.80;;;5.40;;
76393;SDS011;65216;51.090;-115.352;2023-08-17T03:18:34;10.70;;;4.70;;
76393;SDS011;65216;51.090;-115.352;2023-08-17T03:21:03;10.60;;;4.70;;
76393;SDS011;65216;51.090;-115.352;2023-08-17T03:23:32;8.20;;;4.90;;
76393;SDS011;65216;51.090;-115.352;2023-08-17T03:25:59;10.40;;;5.20;;
76393;SDS011;65216;51.090;-115.352;2023-08-17T03:28:27;13.80;;;5.30;;
76393;SDS011;65216;51.090;-115.352;2023-08-17T03:30:57;9.60;;;4.70;;
76393;SDS011;65216;51.090;-115.352;2023-08-17T03:33:24;9.10;;;4.30;;
76393;SDS011;65216;51.090;-115.352;2023-08-17T03:35:51;9.00;;;4.90;;
76393;SDS011;65216;51.090;-115.352;2023-08-17T03:38:18;8.10;;;4.60;;
76393;SDS011;65216;51.090;-115.352;2023-08-17T03:40:46;8.90;;;4.30;;
76393;SDS011;65216;51.090;-115.352;2023-08-17T03:43:13;8.90;;;4.30;;
76393;SDS011;65216;51.090;-115.352;2023-08-17T03:45:41;8.20;;;4.50;;
76393;SDS011;65216;51.090;-115.352;2023-08-17T03:48:09;9.00;;;4.50;;
76393;SDS011;65216;51.090;-115.352;2023-08-17T03:50:36;8.10;;;4.30;;
76393;SDS011;65216;51.090;-115.352;2023-08-17T03:53:03;8.20;;;4.10;;
76393;SDS011;65216;51.090;-115.352;2023-08-17T03:55:30;7.90;;;4.20;;
76393;SDS011;65216;51.090;-115.352;2023-08-17T03:57:57;6.30;;;4.20;;
76393;SDS011;65216;51.090;-115.352;2023-08-17T04:00:24;6.40;;;3.80;;
76393;SDS011;65216;51.090;-115.352;2023-08-17T04:02:51;8.50;;;4.20;;
76393;SDS011;65216;51.090;-115.352;2023-08-17T04:05:18;6.20;;;3.80;;
76393;SDS011;65216;51.090;-115.352;2023-08-17T04:07:45;7.60;;;4.00;;
76393;SDS011;65216;51.090;-115.352;2023-08-17T04:10:13;6.00;;;3.80;;
76393;SDS011;65216;51.090;-115.352;2023-08-17T04:12:40;6.70;;;4.10;;
76393;SDS011;65216;51.090;-115.352;2023-08-17T04:15:10;7.10;;;3.90;;
76393;SDS011;65216;51.090;-115.352;2023-08-17T04:17:36;7.10;;;4.20;;
76393;SDS011;65216;51.090;-115.352;2023-08-17T04:20:03;6.70;;;4.20;;
76393;SDS011;65216;51.090;-115.352;2023-08-17T04:22:31;6.30;;;4.10;;
76393;SDS011;65216;51.090;-115.352;2023-08-17T04:24:57;6.90;;;4.30;;
76393;SDS011;65216;51.090;-115.352;2023-08-17T04:27:24;6.20;;;4.00;;
76393;SDS011;65216;51.090;-115.352;2023-08-17T04:29:51;6.90;;;4.20;;
76393;SDS011;65216;51.090;-115.352;2023-08-17T04:32:18;6.00;;;4.20;;
76393;SDS011;65216;51.090;-115.352;2023-08-17T04:34:46;7.40;;;4.20;;
76393;SDS011;65216;51.090;-115.352;2023-08-17T04:37:14;7.40;;;4.20;;
76393;SDS011;65216;51.090;-115.352;2023-08-17T04:39:44;8.40;;;4.50;;
76393;SDS011;65216;51.090;-115.352;2023-08-17T04:42:13;7.50;;;4.00;;
76393;SDS011;65216;51.090;-115.352;2023-08-17T04:44:41;7.10;;;4.20;;
76393;SDS011;65216;51.090;-115.352;2023-08-17T04:47:09;7.40;;;4.70;;
76393;SDS011;65216;51.090;-115.352;2023-08-17T04:49:35;6.70;;;4.60;;
76393;SDS011;65216;51.090;-115.352;2023-08-17T04:52:04;7.40;;;4.20;;
76393;SDS011;65216;51.090;-115.352;2023-08-17T04:54:33;7.60;;;4.40;;
76393;SDS011;65216;51.090;-115.352;2023-08-17T04:57:01;8.00;;;4.20;;
76393;SDS011;65216;51.090;-115.352;2023-08-17T04:59:30;7.20;;;4.20;;
76393;SDS011;65216;51.090;-115.352;2023-08-17T05:01:57;7.60;;;4.70;;
76393;SDS011;65216;51.090;-115.352;2023-08-17T05:04:24;6.90;;;4.60;;
76393;SDS011;65216;51.090;-115.352;2023-08-17T05:06:51;7.70;;;4.70;;
76393;SDS011;65216;51.090;-115.352;2023-08-17T05:09:18;8.00;;;4.70;;
76393;SDS011;65216;51.090;-115.352;2023-08-17T05:11:45;7.90;;;4.90;;
76393;SDS011;65216;51.090;-115.352;2023-08-17T05:14:12;9.00;;;4.70;;
76393;SDS011;65216;51.090;-115.352;2023-08-17T05:16:39;8.60;;;5.00;;
76393;SDS011;65216;51.090;-115.352;2023-08-17T05:19:06;7.70;;;4.70;;
76393;SDS011;65216;51.090;-115.352;2023-08-17T05:21:34;8.20;;;5.20;;
76393;SDS011;65216;51.090;-115.352;2023-08-17T05:24:02;7.50;;;4.60;;
76393;SDS011;65216;51.090;-115.352;2023-08-17T05:26:30;10.50;;;5.40;;
76393;SDS011;65216;51.090;-115.352;2023-08-17T05:28:57;10.20;;;5.00;;
76393;SDS011;65216;51.090;-115.352;2023-08-17T05:31:24;8.30;;;5.20;;
76393;SDS011;65216;51.090;-115.352;2023-08-17T05:33:51;8.70;;;5.20;;
76393;SDS011;65216;51.090;-115.352;2023-08-17T05:36:18;9.40;;;5.60;;
76393;SDS011;65216;51.090;-115.352;2023-08-17T05:38:45;10.30;;;6.20;;
76393;SDS011;65216;51.090;-115.352;2023-08-17T05:41:12;11.40;;;5.50;;
76393;SDS011;65216;51.090;-115.352;2023-08-17T05:43:39;11.00;;;6.20;;
76393;SDS011;65216;51.090;-115.352;2023-08-17T05:46:05;10.60;;;6.40;;
76393;SDS011;65216;51.090;-115.352;2023-08-17T05:48:35;10.70;;;6.30;;
76393;SDS011;65216;51.090;-115.352;2023-08-17T05:51:02;10.40;;;7.10;;
76393;SDS011;65216;51.090;-115.352;2023-08-17T05:53:29;10.80;;;6.90;;
76393;SDS011;65216;51.090;-115.352;2023-08-17T05:55:56;11.80;;;7.40;;
76393;SDS011;65216;51.090;-115.352;2023-08-17T05:58:23;12.80;;;7.90;;
76393;SDS011;65216;51.090;-115.352;2023-08-17T06:00:50;13.00;;;7.90;;
76393;SDS011;65216;51.090;-115.352;2023-08-17T06:03:17;12.50;;;8.30;;
76393;SDS011;65216;51.090;-115.352;2023-08-17T06:05:47;14.00;;;8.60;;
76393;SDS011;65216;51.090;-115.352;2023-08-17T06:08:14;14.20;;;8.50;;
76393;SDS011;65216;51.090;-115.352;2023-08-17T06:10:41;13.40;;;8.50;;
76393;SDS011;65216;51.090;-115.352;2023-08-17T06:13:08;14.90;;;9.30;;
76393;SDS011;65216;51.090;-115.352;2023-08-17T06:15:35;13.70;;;8.40;;
76393;SDS011;65216;51.090;-115.352;2023-08-17T06:18:02;13.50;;;9.00;;
76393;SDS011;65216;51.090;-115.352;2023-08-17T06:20:29;15.50;;;9.80;;
76393;SDS011;65216;51.090;-115.352;2023-08-17T06:22:55;15.20;;;10.10;;
76393;SDS011;65216;51.090;-115.352;2023-08-17T06:25:22;15.00;;;10.30;;
76393;SDS011;65216;51.090;-115.352;2023-08-17T06:27:50;14.10;;;9.80;;
76393;SDS011;65216;51.090;-115.352;2023-08-17T06:30:18;17.50;;;10.60;;
76393;SDS011;65216;51.090;-115.352;2023-08-17T06:32:45;16.60;;;10.30;;
76393;SDS011;65216;51.090;-115.352;2023-08-17T06:35:12;15.40;;;10.50;;
76393;SDS011;65216;51.090;-115.352;2023-08-17T06:37:39;15.70;;;10.20;;
76393;SDS011;65216;51.090;-115.352;2023-08-17T06:40:09;16.30;;;10.20;;
76393;SDS011;65216;51.090;-115.352;2023-08-17T06:42:36;17.10;;;10.80;;
76393;SDS011;65216;51.090;-115.352;2023-08-17T06:45:04;14.90;;;10.30;;
76393;SDS011;65216;51.090;-115.352;2023-08-17T06:47:32;15.90;;;11.00;;
76393;SDS011;65216;51.090;-115.352;2023-08-17T06:49:58;15.50;;;10.80;;
76393;SDS011;65216;51.090;-115.352;2023-08-17T06:52:25;15.40;;;10.90;;
76393;SDS011;65216;51.090;-115.352;2023-08-17T06:54:54;17.20;;;11.40;;
76393;SDS011;65216;51.090;-115.352;2023-08-17T06:57:22;16.50;;;10.80;;
76393;SDS011;65216;51.090;-115.352;2023-08-17T06:59:49;17.50;;;11.40;;
76393;SDS011;65216;51.090;-115.352;2023-08-17T07:02:16;17.10;;;11.30;;
76393;SDS011;65216;51.090;-115.352;2023-08-17T07:04:43;15.90;;;10.70;;
76393;SDS011;65216;51.090;-115.352;2023-08-17T07:07:10;17.10;;;11.30;;
76393;SDS011;65216;51.090;-115.352;2023-08-17T07:09:37;17.80;;;11.90;;
76393;SDS011;65216;51.090;-115.352;2023-08-17T07:12:07;18.90;;;11.90;;
76393;SDS011;65216;51.090;-115.352;2023-08-17T07:14:34;17.90;;;12.00;;
76393;SDS011;65216;51.090;-115.352;2023-08-17T07:17:04;15.30;;;10.80;;
76393;SDS011;65216;51.090;-115.352;2023-08-17T07:19:33;17.10;;;11.20;;
76393;SDS011;65216;51.090;-115.352;2023-08-17T07:22:00;19.50;;;12.10;;
76393;SDS011;65216;51.090;-115.352;2023-08-17T07:24:30;17.90;;;12.50;;
76393;SDS011;65216;51.090;-115.352;2023-08-17T07:26:57;16.40;;;11.30;;
76393;SDS011;65216;51.090;-115.352;2023-08-17T07:29:24;18.40;;;12.40;;
76393;SDS011;65216;51.090;-115.352;2023-08-17T07:31:50;17.60;;;12.20;;
76393;SDS011;65216;51.090;-115.352;2023-08-17T07:34:17;18.10;;;12.60;;
76393;SDS011;65216;51.090;-115.352;2023-08-17T07:36:44;18.90;;;13.00;;
76393;SDS011;65216;51.090;-115.352;2023-08-17T07:39:11;17.60;;;11.80;;
76393;SDS011;65216;51.090;-115.352;2023-08-17T07:41:39;18.30;;;12.60;;
76393;SDS011;65216;51.090;-115.352;2023-08-17T07:44:08;17.70;;;12.50;;
76393;SDS011;65216;51.090;-115.352;2023-08-17T07:46:35;17.40;;;11.90;;
76393;SDS011;65216;51.090;-115.352;2023-08-17T07:49:02;18.70;;;12.30;;
76393;SDS011;65216;51.090;-115.352;2023-08-17T07:51:29;18.40;;;12.90;;
76393;SDS011;65216;51.090;-115.352;2023-08-17T07:54:02;18.50;;;12.30;;
76393;SDS011;65216;51.090;-115.352;2023-08-17T07:56:29;19.00;;;12.70;;
76393;SDS011;65216;51.090;-115.352;2023-08-17T07:58:57;18.70;;;12.60;;
76393;SDS011;65216;51.090;-115.352;2023-08-17T08:01:26;18.30;;;12.60;;
76393;SDS011;65216;51.090;-115.352;2023-08-17T08:03:53;20.10;;;13.20;;
76393;SDS011;65216;51.090;-115.352;2023-08-17T08:06:20;18.20;;;12.70;;
76393;SDS011;65216;51.090;-115.352;2023-08-17T08:08:47;18.80;;;13.20;;
76393;SDS011;65216;51.090;-115.352;2023-08-17T08:11:14;18.10;;;12.20;;
76393;SDS011;65216;51.090;-115.352;2023-08-17T08:13:41;19.10;;;12.70;;
76393;SDS011;65216;51.090;-115.352;2023-08-17T08:16:10;18.10;;;12.20;;
76393;SDS011;65216;51.090;-115.352;2023-08-17T08:18:37;19.20;;;13.40;;
76393;SDS011;65216;51.090;-115.352;2023-08-17T08:21:04;19.50;;;13.30;;
76393;SDS011;65216;51.090;-115.352;2023-08-17T08:23:33;19.60;;;12.90;;
76393;SDS011;65216;51.090;-115.352;2023-08-17T08:26:00;19.40;;;12.90;;
76393;SDS011;65216;51.090;-115.352;2023-08-17T08:28:27;19.30;;;12.90;;
76393;SDS011;65216;51.090;-115.352;2023-08-17T08:30:54;19.30;;;12.80;;
76393;SDS011;65216;51.090;-115.352;2023-08-17T08:33:21;19.60;;;13.10;;
76393;SDS011;65216;51.090;-115.352;2023-08-17T08:35:48;19.20;;;12.20;;
76393;SDS011;65216;51.090;-115.352;2023-08-17T08:38:18;19.40;;;13.00;;
76393;SDS011;65216;51.090;-115.352;2023-08-17T08:40:47;18.80;;;13.50;;
76393;SDS011;65216;51.090;-115.352;2023-08-17T08:43:15;17.90;;;12.20;;
76393;SDS011;65216;51.090;-115.352;2023-08-17T08:45:42;19.50;;;14.40;;
76393;SDS011;65216;51.090;-115.352;2023-08-17T08:48:13;17.70;;;12.10;;
76393;SDS011;65216;51.090;-115.352;2023-08-17T08:50:45;18.80;;;12.60;;
76393;SDS011;65216;51.090;-115.352;2023-08-17T08:53:14;18.30;;;12.10;;
76393;SDS011;65216;51.090;-115.352;2023-08-17T08:55:58;18.40;;;12.70;;
76393;SDS011;65216;51.090;-115.352;2023-08-17T08:58:26;18.50;;;11.80;;
76393;SDS011;65216;51.090;-115.352;2023-08-17T09:00:57;18.00;;;12.50;;
76393;SDS011;65216;51.090;-115.352;2023-08-17T09:03:25;18.90;;;12.90;;
76393;SDS011;65216;51.090;-115.352;2023-08-17T09:05:53;19.30;;;13.50;;
76393;SDS011;65216;51.090;-115.352;2023-08-17T09:08:29;17.90;;;12.60;;
76393;SDS011;65216;51.090;-115.352;2023-08-17T09:10:57;20.40;;;13.90;;
76393;SDS011;65216;51.090;-115.352;2023-08-17T09:13:24;19.00;;;13.10;;
76393;SDS011;65216;51.090;-115.352;2023-08-17T09:15:51;20.40;;;13.90;;
76393;SDS011;65216;51.090;-115.352;2023-08-17T09:18:19;20.40;;;13.00;;
76393;SDS011;65216;51.090;-115.352;2023-08-17T09:20:47;20.20;;;13.30;;
76393;SDS011;65216;51.090;-115.352;2023-08-17T09:23:19;18.80;;;12.60;;
76393;SDS011;65216;51.090;-115.352;2023-08-17T09:25:48;19.40;;;12.60;;
76393;SDS011;65216;51.090;-115.352;2023-08-17T09:28:19;18.90;;;13.20;;
76393;SDS011;65216;51.090;-115.352;2023-08-17T09:33:32;19.20;;;12.90;;
76393;SDS011;65216;51.090;-115.352;2023-08-17T09:36:01;18.30;;;12.30;;
76393;SDS011;65216;51.090;-115.352;2023-08-17T09:38:31;19.00;;;12.90;;
76393;SDS011;65216;51.090;-115.352;2023-08-17T09:41:01;18.50;;;12.50;;
76393;SDS011;65216;51.090;-115.352;2023-08-17T09:43:28;20.10;;;13.20;;
76393;SDS011;65216;51.090;-115.352;2023-08-17T09:45:58;19.00;;;13.20;;
76393;SDS011;65216;51.090;-115.352;2023-08-17T09:48:28;19.30;;;13.60;;
76393;SDS011;65216;51.090;-115.352;2023-08-17T09:50:57;18.90;;;13.00;;
76393;SDS011;65216;51.090;-115.352;2023-08-17T09:53:25;20.20;;;14.00;;
76393;SDS011;65216;51.090;-115.352;2023-08-17T09:55:53;20.60;;;13.90;;
76393;SDS011;65216;51.090;-115.352;2023-08-17T09:58:23;20.70;;;13.20;;
76393;SDS011;65216;51.090;-115.352;2023-08-17T10:00:50;21.20;;;14.20;;
76393;SDS011;65216;51.090;-115.352;2023-08-17T10:03:19;20.40;;;13.90;;
76393;SDS011;65216;51.090;-115.352;2023-08-17T10:05:52;21.40;;;14.80;;
76393;SDS011;65216;51.090;-115.352;2023-08-17T10:08:30;21.20;;;14.10;;
76393;SDS011;65216;51.090;-115.352;2023-08-17T10:11:02;20.50;;;13.60;;
76393;SDS011;65216;51.090;-115.352;2023-08-17T10:16:25;22.60;;;14.40;;
76393;SDS011;65216;51.090;-115.352;2023-08-17T10:19:09;20.90;;;14.30;;
76393;SDS011;65216;51.090;-115.352;2023-08-17T10:21:59;22.00;;;14.40;;
76393;SDS011;65216;51.090;-115.352;2023-08-17T10:24:37;18.80;;;13.10;;
76393;SDS011;65216;51.090;-115.352;2023-08-17T10:27:06;21.00;;;13.80;;
76393;SDS011;65216;51.090;-115.352;2023-08-17T10:29:36;19.00;;;14.00;;
76393;SDS011;65216;51.090;-115.352;2023-08-17T10:32:06;20.50;;;14.50;;
76393;SDS011;65216;51.090;-115.352;2023-08-17T10:34:35;21.80;;;15.00;;
76393;SDS011;65216;51.090;-115.352;2023-08-17T10:37:06;21.70;;;14.70;;
76393;SDS011;65216;51.090;-115.352;2023-08-17T10:39:33;21.80;;;15.10;;
76393;SDS011;65216;51.090;-115.352;2023-08-17T10:42:03;22.40;;;15.50;;
76393;SDS011;65216;51.090;-115.352;2023-08-17T10:44:48;20.70;;;14.40;;
76393;SDS011;65216;51.090;-115.352;2023-08-17T10:49:59;21.00;;;14.20;;
76393;SDS011;65216;51.090;-115.352;2023-08-17T10:52:48;21.10;;;14.80;;
76393;SDS011;65216;51.090;-115.352;2023-08-17T10:55:16;21.40;;;14.80;;
76393;SDS011;65216;51.090;-115.352;2023-08-17T10:57:45;20.70;;;14.70;;
76393;SDS011;65216;51.090;-115.352;2023-08-17T11:00:19;20.70;;;14.90;;
76393;SDS011;65216;51.090;-115.352;2023-08-17T11:02:58;20.20;;;15.10;;
76393;SDS011;65216;51.090;-115.352;2023-08-17T11:05:50;24.00;;;16.40;;
76393;SDS011;65216;51.090;-115.352;2023-08-17T11:08:28;22.50;;;15.30;;
76393;SDS011;65216;51.090;-115.352;2023-08-17T11:11:14;22.80;;;15.50;;
76393;SDS011;65216;51.090;-115.352;2023-08-17T11:13:43;21.20;;;15.40;;
76393;SDS011;65216;51.090;-115.352;2023-08-17T11:16:13;21.70;;;15.60;;
76393;SDS011;65216;51.090;-115.352;2023-08-17T11:18:40;20.80;;;15.20;;
76393;SDS011;65216;51.090;-115.352;2023-08-17T11:21:08;24.10;;;16.40;;
76393;SDS011;65216;51.090;-115.352;2023-08-17T11:23:37;22.70;;;16.20;;
76393;SDS011;65216;51.090;-115.352;2023-08-17T11:26:04;23.80;;;16.30;;
76393;SDS011;65216;51.090;-115.352;2023-08-17T11:28:33;23.80;;;16.40;;
76393;SDS011;65216;51.090;-115.352;2023-08-17T11:31:09;23.00;;;15.90;;
76393;SDS011;65216;51.090;-115.352;2023-08-17T11:33:38;21.90;;;15.90;;
76393;SDS011;65216;51.090;-115.352;2023-08-17T11:36:07;21.30;;;15.60;;
76393;SDS011;65216;51.090;-115.352;2023-08-17T11:38:37;20.60;;;14.70;;
76393;SDS011;65216;51.090;-115.352;2023-08-17T11:41:10;22.90;;;14.90;;
76393;SDS011;65216;51.090;-115.352;2023-08-17T11:43:38;24.00;;;16.30;;
76393;SDS011;65216;51.090;-115.352;2023-08-17T11:46:05;21.60;;;16.00;;
76393;SDS011;65216;51.090;-115.352;2023-08-17T11:48:32;21.70;;;15.40;;
76393;SDS011;65216;51.090;-115.352;2023-08-17T11:51:00;23.00;;;15.00;;
76393;SDS011;65216;51.090;-115.352;2023-08-17T11:53:33;20.60;;;14.50;;
76393;SDS011;65216;51.090;-115.352;2023-08-17T11:56:04;23.50;;;15.80;;
76393;SDS011;65216;51.090;-115.352;2023-08-17T11:58:45;22.70;;;15.40;;
76393;SDS011;65216;51.090;-115.352;2023-08-17T12:01:13;20.50;;;15.60;;
76393;SDS011;65216;51.090;-115.352;2023-08-17T12:03:42;23.80;;;15.80;;
76393;SDS011;65216;51.090;-115.352;2023-08-17T12:06:12;23.70;;;16.00;;
76393;SDS011;65216;51.090;-115.352;2023-08-17T12:08:49;21.10;;;15.30;;
76393;SDS011;65216;51.090;-115.352;2023-08-17T12:11:23;20.20;;;14.10;;
76393;SDS011;65216;51.090;-115.352;2023-08-17T12:13:51;21.70;;;14.70;;
76393;SDS011;65216;51.090;-115.352;2023-08-17T12:16:20;23.50;;;15.60;;
76393;SDS011;65216;51.090;-115.352;2023-08-17T12:18:51;23.10;;;15.80;;
76393;SDS011;65216;51.090;-115.352;2023-08-17T12:21:22;21.60;;;15.90;;
76393;SDS011;65216;51.090;-115.352;2023-08-17T12:23:50;19.80;;;13.90;;
76393;SDS011;65216;51.090;-115.352;2023-08-17T12:26:23;22.80;;;15.40;;
76393;SDS011;65216;51.090;-115.352;2023-08-17T12:28:50;20.20;;;14.40;;
76393;SDS011;65216;51.090;-115.352;2023-08-17T12:31:22;21.90;;;15.10;;
76393;SDS011;65216;51.090;-115.352;2023-08-17T12:33:49;20.10;;;14.30;;
76393;SDS011;65216;51.090;-115.352;2023-08-17T12:36:17;21.00;;;14.10;;
76393;SDS011;65216;51.090;-115.352;2023-08-17T12:38:46;20.60;;;14.30;;
76393;SDS011;65216;51.090;-115.352;2023-08-17T12:41:14;22.50;;;15.40;;
76393;SDS011;65216;51.090;-115.352;2023-08-17T12:43:40;22.00;;;15.20;;
76393;SDS011;65216;51.090;-115.352;2023-08-17T12:46:07;21.10;;;15.50;;
76393;SDS011;65216;51.090;-115.352;2023-08-17T12:48:34;20.60;;;15.10;;
76393;SDS011;65216;51.090;-115.352;2023-08-17T12:51:01;20.90;;;15.50;;
76393;SDS011;65216;51.090;-115.352;2023-08-17T12:53:29;20.00;;;14.20;;
76393;SDS011;65216;51.090;-115.352;2023-08-17T12:55:56;20.40;;;14.50;;
76393;SDS011;65216;51.090;-115.352;2023-08-17T12:58:24;20.20;;;14.10;;
76393;SDS011;65216;51.090;-115.352;2023-08-17T13:00:51;20.00;;;14.70;;
76393;SDS011;65216;51.090;-115.352;2023-08-17T13:03:20;20.20;;;14.50;;
76393;SDS011;65216;51.090;-115.352;2023-08-17T13:05:47;21.10;;;14.50;;
76393;SDS011;65216;51.090;-115.352;2023-08-17T13:08:14;18.90;;;13.50;;
76393;SDS011;65216;51.090;-115.352;2023-08-17T13:10:41;19.70;;;14.10;;
76393;SDS011;65216;51.090;-115.352;2023-08-17T13:13:08;21.60;;;14.90;;
76393;SDS011;65216;51.090;-115.352;2023-08-17T13:15:36;22.70;;;15.10;;
76393;SDS011;65216;51.090;-115.352;2023-08-17T13:18:03;20.00;;;14.40;;
76393;SDS011;65216;51.090;-115.352;2023-08-17T13:20:31;21.10;;;15.20;;
76393;SDS011;65216;51.090;-115.352;2023-08-17T13:22:57;20.20;;;14.90;;
76393;SDS011;65216;51.090;-115.352;2023-08-17T13:25:25;20.20;;;14.50;;
76393;SDS011;65216;51.090;-115.352;2023-08-17T13:27:52;21.30;;;15.50;;
76393;SDS011;65216;51.090;-115.352;2023-08-17T13:30:19;20.50;;;14.60;;
76393;SDS011;65216;51.090;-115.352;2023-08-17T13:32:47;21.40;;;14.80;;
76393;SDS011;65216;51.090;-115.352;2023-08-17T13:35:14;20.40;;;14.80;;
76393;SDS011;65216;51.090;-115.352;2023-08-17T13:37:41;19.70;;;13.70;;
76393;SDS011;65216;51.090;-115.352;2023-08-17T13:40:09;19.00;;;13.50;;
76393;SDS011;65216;51.090;-115.352;2023-08-17T13:42:37;21.00;;;14.50;;
76393;SDS011;65216;51.090;-115.352;2023-08-17T13:45:03;20.70;;;14.10;;
76393;SDS011;65216;51.090;-115.352;2023-08-17T13:47:31;19.10;;;14.50;;
76393;SDS011;65216;51.090;-115.352;2023-08-17T13:49:58;19.90;;;14.60;;
76393;SDS011;65216;51.090;-115.352;2023-08-17T13:52:25;19.40;;;13.90;;
76393;SDS011;65216;51.090;-115.352;2023-08-17T13:54:51;20.00;;;14.40;;
76393;SDS011;65216;51.090;-115.352;2023-08-17T13:57:19;18.90;;;13.10;;
76393;SDS011;65216;51.090;-115.352;2023-08-17T13:59:46;20.20;;;13.70;;
76393;SDS011;65216;51.090;-115.352;2023-08-17T14:02:15;20.30;;;14.50;;
76393;SDS011;65216;51.090;-115.352;2023-08-17T14:04:42;18.20;;;13.50;;
76393;SDS011;65216;51.090;-115.352;2023-08-17T14:07:09;19.80;;;13.70;;
76393;SDS011;65216;51.090;-115.352;2023-08-17T14:09:36;20.00;;;13.40;;